createdAt,value
2016-12-25T00:00:12.087Z,52.90
2016-12-25T00:01:13.148Z,52.90
2016-12-25T00:02:13.740Z,52.60
2016-12-25T00:03:13.901Z,53.10
2016-12-25T00:04:13.327Z,53.00
2016-12-25T00:05:13.717Z,52.90
2016-12-25T00:06:15.664Z,52.00
2016-12-25T00:07:12.705Z,53.10
2016-12-25T00:08:13.713Z,53.00
2016-12-25T00:09:12.138Z,52.90
2016-12-25T00:10:13.329Z,52.90
2016-12-25T00:11:12.664Z,53.00
2016-12-25T00:12:12.874Z,53.00
2016-12-25T00:13:13.354Z,52.90
2016-12-25T00:14:13.079Z,53.10
2016-12-25T00:15:13.441Z,52.90
2016-12-25T00:16:13.134Z,52.90
2016-12-25T00:17:12.676Z,53.00
2016-12-25T00:18:14.640Z,52.10
2016-12-25T00:19:13.030Z,53.00
2016-12-25T00:20:15.159Z,53.00
2016-12-25T00:21:16.083Z,53.00
2016-12-25T00:22:15.102Z,52.90
2016-12-25T00:23:13.995Z,53.10
2016-12-25T00:24:11.187Z,is
2016-12-25T00:25:13.303Z,53.00
2016-12-25T00:26:13.011Z,53.00
2016-12-25T00:27:12.730Z,53.00
2016-12-25T00:28:12.790Z,53.00
2016-12-25T00:29:12.731Z,53.00
2016-12-25T00:30:10.261Z,is
2016-12-25T00:31:13.560Z,52.20
2016-12-25T00:32:13.313Z,53.00
2016-12-25T00:33:12.734Z,53.00
2016-12-25T00:34:12.314Z,53.00
2016-12-25T00:35:12.934Z,53.00
2016-12-25T00:36:13.097Z,53.00
2016-12-25T00:37:13.562Z,53.10
2016-12-25T00:38:12.932Z,53.00
2016-12-25T00:39:12.868Z,53.00
2016-12-25T00:40:15.137Z,53.00
2016-12-25T00:41:12.345Z,53.00
2016-12-25T00:42:13.277Z,53.10
2016-12-25T00:43:12.894Z,53.00
2016-12-25T00:44:12.355Z,53.00
2016-12-25T00:45:13.760Z,53.00
2016-12-25T00:46:12.858Z,53.10
2016-12-25T00:47:12.295Z,53.10
2016-12-25T00:48:13.536Z,53.10
2016-12-25T00:49:12.285Z,53.10
2016-12-25T00:50:12.425Z,53.10
2016-12-25T00:51:14.182Z,53.00
2016-12-25T00:52:12.573Z,53.00
2016-12-25T00:53:12.189Z,53.00
2016-12-25T00:54:12.610Z,53.00
2016-12-25T00:55:09.642Z,is
2016-12-25T00:56:12.579Z,53.40
2016-12-25T00:57:13.301Z,53.20
2016-12-25T00:58:12.675Z,53.20
2016-12-25T00:59:12.721Z,53.20
2016-12-25T01:00:13.601Z,53.10
2016-12-25T01:01:12.868Z,53.10
2016-12-25T01:02:13.450Z,53.10
2016-12-25T01:03:12.901Z,53.30
2016-12-25T01:04:12.383Z,53.20
2016-12-25T01:05:12.729Z,53.20
2016-12-25T01:06:13.299Z,53.20
2016-12-25T01:07:13.397Z,53.40
2016-12-25T01:08:12.993Z,53.30
2016-12-25T01:09:13.462Z,53.30
2016-12-25T01:10:12.612Z,53.30
2016-12-25T01:11:12.676Z,53.30
2016-12-25T01:12:12.596Z,53.40
2016-12-25T01:13:13.420Z,53.50
2016-12-25T01:14:16.553Z,53.60
2016-12-25T01:15:12.324Z,53.60
2016-12-25T01:16:15.071Z,53.50
2016-12-25T01:17:14.035Z,53.50
2016-12-25T01:18:14.888Z,53.60
2016-12-25T01:19:14.105Z,53.60
2016-12-25T01:20:14.545Z,53.50
2016-12-25T01:21:21.081Z,53.50
2016-12-25T01:22:13.244Z,52.60
2016-12-25T01:23:11.647Z,is
2016-12-25T01:24:21.820Z,53.60
2016-12-25T01:25:12.758Z,53.60
2016-12-25T01:26:17.473Z,53.50
2016-12-25T01:27:13.263Z,53.50
2016-12-25T01:28:13.210Z,53.70
2016-12-25T01:29:13.353Z,53.50
2016-12-25T01:30:20.770Z,53.70
2016-12-25T01:31:13.892Z,53.70
2016-12-25T01:32:14.256Z,53.60
2016-12-25T01:33:11.490Z,is
2016-12-25T01:34:15.027Z,53.70
2016-12-25T01:35:14.782Z,52.70
2016-12-25T01:36:15.063Z,53.70
2016-12-25T01:37:12.075Z,is
2016-12-25T01:38:13.060Z,53.80
2016-12-25T01:39:13.742Z,53.60
2016-12-25T01:40:12.553Z,53.80
2016-12-25T01:41:14.622Z,53.60
2016-12-25T01:42:12.412Z,53.50
2016-12-25T01:43:12.402Z,53.70
2016-12-25T01:44:13.240Z,53.70
2016-12-25T01:45:13.847Z,54.20
2016-12-25T01:46:13.593Z,53.60
2016-12-25T01:47:14.680Z,53.80
2016-12-25T01:48:12.665Z,53.80
2016-12-25T01:49:13.644Z,53.80
2016-12-25T01:50:14.472Z,53.70
2016-12-25T01:51:13.706Z,53.80
2016-12-25T01:52:13.575Z,53.80
2016-12-25T01:53:14.774Z,53.90
2016-12-25T01:54:13.555Z,53.80
2016-12-25T01:55:14.215Z,53.70
2016-12-25T01:56:13.671Z,53.60
2016-12-25T01:57:12.780Z,53.80
2016-12-25T01:58:14.563Z,54.00
2016-12-25T01:59:13.023Z,53.90
2016-12-25T02:00:14.393Z,53.90
2016-12-25T02:01:14.329Z,53.90
2016-12-25T02:02:12.637Z,53.80
2016-12-25T02:03:13.358Z,53.90
2016-12-25T02:04:14.307Z,53.80
2016-12-25T02:05:13.518Z,54.00
2016-12-25T02:06:14.335Z,53.90
2016-12-25T02:07:13.013Z,53.90
2016-12-25T02:08:15.029Z,54.00
2016-12-25T02:09:14.239Z,53.90
2016-12-25T02:10:11.574Z,is
2016-12-25T02:11:14.190Z,54.00
2016-12-25T02:12:15.290Z,54.00
2016-12-25T02:13:15.322Z,53.80
2016-12-25T02:14:13.589Z,53.80
2016-12-25T02:15:12.533Z,54.00
2016-12-25T02:16:14.682Z,53.80
2016-12-25T02:17:13.093Z,54.00
2016-12-25T02:18:14.355Z,53.90
2016-12-25T02:19:14.205Z,54.00
2016-12-25T02:20:12.766Z,53.90
2016-12-25T02:21:14.008Z,53.80
2016-12-25T02:22:13.931Z,53.90
2016-12-25T02:23:12.197Z,53.90
2016-12-25T02:24:12.715Z,53.80
2016-12-25T02:25:14.272Z,53.70
2016-12-25T02:26:11.585Z,is
2016-12-25T02:27:11.602Z,is
2016-12-25T02:28:13.323Z,54.00
2016-12-25T02:29:13.000Z,54.00
2016-12-25T02:30:12.870Z,53.90
2016-12-25T02:31:12.874Z,54.00
2016-12-25T02:32:15.128Z,53.90
2016-12-25T02:33:13.494Z,54.00
2016-12-25T02:34:14.244Z,53.00
2016-12-25T02:35:15.025Z,54.00
2016-12-25T02:36:14.005Z,53.90
2016-12-25T02:37:12.929Z,53.90
2016-12-25T02:38:15.001Z,53.90
2016-12-25T02:39:12.876Z,54.00
2016-12-25T02:40:12.269Z,53.90
2016-12-25T02:41:15.069Z,54.00
2016-12-25T02:42:21.600Z,53.90
2016-12-25T02:43:13.645Z,53.90
2016-12-25T02:44:13.776Z,53.90
2016-12-25T02:45:26.659Z,53.80
2016-12-25T02:46:19.368Z,54.00
2016-12-25T02:47:14.614Z,53.80
2016-12-25T02:48:14.591Z,54.00
2016-12-25T02:49:13.172Z,54.00
2016-12-25T02:50:13.806Z,54.00
2016-12-25T02:51:14.841Z,54.00
2016-12-25T02:52:14.404Z,54.00
2016-12-25T02:53:12.703Z,54.00
2016-12-25T02:54:13.919Z,53.80
2016-12-25T02:55:13.044Z,53.90
2016-12-25T02:56:12.908Z,53.90
2016-12-25T02:57:13.084Z,53.90
2016-12-25T02:58:12.993Z,53.90
2016-12-25T02:59:12.733Z,53.90
2016-12-25T03:00:12.948Z,53.80
2016-12-25T03:01:11.251Z,is
2016-12-25T03:02:11.843Z,53.90
2016-12-25T03:03:14.302Z,53.90
2016-12-25T03:04:12.610Z,53.90
2016-12-25T03:05:12.508Z,54.10
2016-12-25T03:06:13.319Z,54.40
2016-12-25T03:07:13.828Z,54.40
2016-12-25T03:08:12.292Z,54.50
2016-12-25T03:09:11.663Z,is
2016-12-25T03:10:13.844Z,54.80
2016-12-25T03:11:13.809Z,54.80
2016-12-25T03:12:13.153Z,54.80
2016-12-25T03:13:13.125Z,54.80
2016-12-25T03:14:13.213Z,54.90
2016-12-25T03:15:12.969Z,54.90
2016-12-25T03:16:13.394Z,54.90
2016-12-25T03:17:12.196Z,54.70
2016-12-25T03:18:12.593Z,54.70
2016-12-25T03:19:10.969Z,is
2016-12-25T03:20:13.961Z,54.80
2016-12-25T03:21:12.203Z,54.80
2016-12-25T03:22:13.514Z,54.80
2016-12-25T03:23:12.419Z,54.80
2016-12-25T03:24:12.208Z,55.30
2016-12-25T03:25:13.617Z,54.70
2016-12-25T03:26:12.711Z,54.80
2016-12-25T03:27:13.529Z,54.70
2016-12-25T03:28:10.425Z,is
2016-12-25T03:29:12.966Z,54.70
2016-12-25T03:30:12.733Z,54.80
2016-12-25T03:31:12.878Z,54.80
2016-12-25T03:32:12.714Z,54.80
2016-12-25T03:33:12.143Z,54.70
2016-12-25T03:34:13.316Z,54.80
2016-12-25T03:35:13.256Z,54.80
2016-12-25T03:36:13.674Z,54.80
2016-12-25T03:37:12.192Z,54.70
2016-12-25T03:38:13.430Z,54.80
2016-12-25T03:39:12.794Z,54.80
2016-12-25T03:40:14.421Z,54.80
2016-12-25T03:41:12.338Z,54.80
2016-12-25T03:42:11.792Z,is
2016-12-25T03:43:15.955Z,54.80
2016-12-25T03:44:12.950Z,54.80
2016-12-25T03:45:11.303Z,is
2016-12-25T03:46:12.447Z,54.80
2016-12-25T03:47:13.072Z,54.70
2016-12-25T03:48:13.090Z,54.70
2016-12-25T03:49:13.739Z,54.80
2016-12-25T03:50:14.905Z,54.70
2016-12-25T03:51:13.307Z,54.70
2016-12-25T03:52:12.825Z,54.70
2016-12-25T03:53:13.477Z,54.80
2016-12-25T03:54:11.915Z,53.90
2016-12-25T03:55:10.343Z,is
2016-12-25T03:56:13.038Z,54.80
2016-12-25T03:57:13.185Z,54.70
2016-12-25T03:58:13.090Z,54.80
2016-12-25T03:59:20.720Z,54.80
2016-12-25T04:00:13.458Z,54.80
2016-12-25T04:01:15.374Z,54.90
2016-12-25T04:02:13.069Z,54.80
2016-12-25T04:03:10.466Z,is
2016-12-25T04:04:13.809Z,54.80
2016-12-25T04:05:12.789Z,54.70
2016-12-25T04:06:13.168Z,54.80
2016-12-25T04:07:12.477Z,54.70
2016-12-25T04:08:12.483Z,54.70
2016-12-25T04:09:11.005Z,is
2016-12-25T04:10:13.099Z,54.80
2016-12-25T04:11:13.168Z,54.80
2016-12-25T04:12:10.828Z,is
2016-12-25T04:13:12.808Z,54.70
2016-12-25T04:14:14.417Z,54.80
2016-12-25T04:15:14.285Z,54.80
2016-12-25T04:16:11.893Z,54.80
2016-12-25T04:17:12.506Z,54.70
2016-12-25T04:18:14.456Z,54.80
2016-12-25T04:19:12.697Z,54.70
2016-12-25T04:20:13.318Z,54.70
2016-12-25T04:21:14.348Z,54.80
2016-12-25T04:22:14.038Z,54.70
2016-12-25T04:23:13.290Z,54.80
2016-12-25T04:24:13.537Z,54.70
2016-12-25T04:25:09.598Z,is
2016-12-25T04:26:13.988Z,54.80
2016-12-25T04:27:12.768Z,54.70
2016-12-25T04:28:13.532Z,54.70
2016-12-25T04:29:12.012Z,54.70
2016-12-25T04:30:11.441Z,is
2016-12-25T04:31:11.978Z,54.70
2016-12-25T04:32:12.748Z,54.80
2016-12-25T04:33:12.702Z,54.70
2016-12-25T04:34:12.117Z,54.70
2016-12-25T04:35:13.172Z,54.80
2016-12-25T04:36:10.770Z,is
2016-12-25T04:37:13.598Z,54.80
2016-12-25T04:38:13.508Z,54.80
2016-12-25T04:39:12.342Z,54.80
2016-12-25T04:40:13.218Z,54.80
2016-12-25T04:41:14.240Z,54.80
2016-12-25T04:42:13.388Z,54.70
2016-12-25T04:43:14.133Z,54.80
2016-12-25T04:44:12.583Z,54.70
2016-12-25T04:45:12.548Z,54.80
2016-12-25T04:46:12.284Z,54.10
2016-12-25T04:47:12.306Z,54.90
2016-12-25T04:48:15.093Z,54.80
2016-12-25T04:49:12.782Z,54.80
2016-12-25T04:50:13.593Z,54.80
2016-12-25T04:51:12.062Z,54.80
2016-12-25T04:52:10.964Z,is
2016-12-25T04:53:11.179Z,is
2016-12-25T04:54:14.057Z,54.70
2016-12-25T04:55:12.997Z,54.70
2016-12-25T04:56:12.950Z,54.80
2016-12-25T04:57:13.058Z,54.80
2016-12-25T04:58:13.178Z,54.80
2016-12-25T04:59:11.421Z,is
2016-12-25T05:00:13.336Z,54.70
2016-12-25T05:01:13.349Z,54.90
2016-12-25T05:02:11.700Z,is
2016-12-25T05:03:13.427Z,54.80
2016-12-25T05:04:12.870Z,54.80
2016-12-25T05:05:13.649Z,54.90
2016-12-25T05:06:14.266Z,54.70
2016-12-25T05:07:13.267Z,54.80
2016-12-25T05:08:11.520Z,is
2016-12-25T05:09:12.695Z,54.70
2016-12-25T05:10:10.922Z,is
2016-12-25T05:11:15.049Z,53.90
2016-12-25T05:12:13.337Z,54.70
2016-12-25T05:13:13.365Z,54.70
2016-12-25T05:14:13.531Z,54.90
2016-12-25T05:15:12.562Z,54.80
2016-12-25T05:16:12.126Z,54.90
2016-12-25T05:17:13.201Z,54.90
2016-12-25T05:18:13.338Z,54.80
2016-12-25T05:19:14.515Z,54.70
2016-12-25T05:20:16.200Z,54.70
2016-12-25T05:21:13.173Z,54.80
2016-12-25T05:22:18.210Z,54.70
2016-12-25T05:23:24.611Z,54.70
2016-12-25T05:24:13.275Z,54.70
2016-12-25T05:25:16.165Z,54.90
2016-12-25T05:26:16.403Z,54.90
2016-12-25T05:27:13.849Z,54.80
2016-12-25T05:28:12.248Z,54.80
2016-12-25T05:29:14.186Z,54.90
2016-12-25T05:30:13.872Z,54.70
2016-12-25T05:31:13.579Z,54.70
2016-12-25T05:32:12.887Z,54.80
2016-12-25T05:33:13.274Z,54.90
2016-12-25T05:34:13.093Z,54.90
2016-12-25T05:35:12.886Z,55.40
2016-12-25T05:36:12.530Z,54.70
2016-12-25T05:37:11.922Z,54.70
2016-12-25T05:38:12.423Z,54.70
2016-12-25T05:39:12.163Z,54.70
2016-12-25T05:40:11.384Z,is
2016-12-25T05:41:12.009Z,54.80
2016-12-25T05:42:12.877Z,54.80
2016-12-25T05:43:12.841Z,54.70
2016-12-25T05:44:12.895Z,54.70
2016-12-25T05:45:12.872Z,54.90
2016-12-25T05:46:10.402Z,is
2016-12-25T05:47:13.028Z,54.90
2016-12-25T05:48:14.910Z,54.80
2016-12-25T05:49:13.986Z,54.90
2016-12-25T05:50:12.281Z,54.80
2016-12-25T05:51:12.813Z,54.70
2016-12-25T05:52:12.822Z,54.90
2016-12-25T05:53:13.562Z,54.80
2016-12-25T05:54:12.372Z,54.90
2016-12-25T05:55:12.774Z,54.70
2016-12-25T05:56:12.160Z,54.70
2016-12-25T05:57:12.762Z,54.70
2016-12-25T05:58:12.540Z,54.90
2016-12-25T05:59:11.869Z,54.70
2016-12-25T06:00:14.885Z,53.90
2016-12-25T06:01:12.357Z,54.70
2016-12-25T06:02:13.200Z,54.80
2016-12-25T06:03:12.752Z,54.70
2016-12-25T06:04:12.952Z,54.80
2016-12-25T06:05:12.991Z,54.80
2016-12-25T06:06:12.407Z,54.70
2016-12-25T06:07:12.298Z,54.80
2016-12-25T06:08:11.480Z,is
2016-12-25T06:09:12.963Z,54.80
2016-12-25T06:10:12.377Z,54.70
2016-12-25T06:11:14.482Z,54.90
2016-12-25T06:12:12.280Z,54.80
2016-12-25T06:13:13.211Z,54.90
2016-12-25T06:14:11.553Z,is
2016-12-25T06:15:14.422Z,54.80
2016-12-25T06:16:12.158Z,54.70
2016-12-25T06:17:13.490Z,54.80
2016-12-25T06:18:12.310Z,54.90
2016-12-25T06:19:13.201Z,54.90
2016-12-25T06:20:12.530Z,54.80
2016-12-25T06:21:11.999Z,54.70
2016-12-25T06:22:12.875Z,54.90
2016-12-25T06:23:13.881Z,54.90
2016-12-25T06:24:12.421Z,54.70
2016-12-25T06:25:12.433Z,54.90
2016-12-25T06:26:11.881Z,54.80
2016-12-25T06:27:10.704Z,is
2016-12-25T06:28:11.357Z,is
2016-12-25T06:29:11.800Z,54.70
2016-12-25T06:30:12.192Z,54.80
2016-12-25T06:31:12.491Z,54.80
2016-12-25T06:32:12.162Z,54.80
2016-12-25T06:33:13.007Z,54.90
2016-12-25T06:34:12.930Z,55.00
2016-12-25T06:35:13.750Z,54.80
2016-12-25T06:36:12.242Z,54.80
2016-12-25T06:37:13.054Z,54.90
2016-12-25T06:38:14.114Z,54.80
2016-12-25T06:39:13.859Z,54.70
2016-12-25T06:40:13.070Z,54.80
2016-12-25T06:41:13.127Z,54.80
2016-12-25T06:42:12.737Z,54.90
2016-12-25T06:43:12.196Z,54.70
2016-12-25T06:44:14.168Z,54.80
2016-12-25T06:45:14.283Z,54.80
2016-12-25T06:46:16.580Z,54.90
2016-12-25T06:47:12.957Z,54.80
2016-12-25T06:48:12.775Z,is
2016-12-25T06:49:14.320Z,54.80
2016-12-25T06:50:19.558Z,54.80
2016-12-25T06:51:13.203Z,54.80
2016-12-25T06:52:12.698Z,54.80
2016-12-25T06:53:12.332Z,54.70
2016-12-25T06:54:14.168Z,54.90
2016-12-25T06:55:12.819Z,54.90
2016-12-25T06:56:11.325Z,is
2016-12-25T06:57:13.513Z,54.90
2016-12-25T06:58:12.181Z,54.80
2016-12-25T06:59:13.988Z,54.80
2016-12-25T07:00:12.374Z,55.00
2016-12-25T07:01:11.930Z,54.70
2016-12-25T07:02:12.341Z,54.80
2016-12-25T07:03:15.321Z,54.80
2016-12-25T07:04:13.918Z,54.80
2016-12-25T07:05:12.799Z,54.90
2016-12-25T07:06:12.321Z,54.80
2016-12-25T07:07:13.121Z,54.90
2016-12-25T07:08:12.633Z,54.70
2016-12-25T07:09:13.363Z,54.80
2016-12-25T07:10:13.388Z,54.90
2016-12-25T07:11:11.814Z,54.80
2016-12-25T07:12:12.161Z,54.80
2016-12-25T07:13:10.844Z,is
2016-12-25T07:14:12.156Z,54.70
2016-12-25T07:15:12.572Z,54.70
2016-12-25T07:16:15.344Z,54.00
2016-12-25T07:17:13.870Z,54.80
2016-12-25T07:18:12.596Z,54.90
2016-12-25T07:19:12.062Z,54.70
2016-12-25T07:20:15.862Z,54.80
2016-12-25T07:21:12.716Z,54.90
2016-12-25T07:22:13.800Z,54.90
2016-12-25T07:23:10.388Z,is
2016-12-25T07:24:12.781Z,54.80
2016-12-25T07:25:14.638Z,54.80
2016-12-25T07:26:12.182Z,54.80
2016-12-25T07:27:12.658Z,54.80
2016-12-25T07:28:12.388Z,54.90
2016-12-25T07:29:13.158Z,55.50
2016-12-25T07:30:12.640Z,54.70
2016-12-25T07:31:14.387Z,54.90
2016-12-25T07:32:12.265Z,54.90
2016-12-25T07:33:12.605Z,54.90
2016-12-25T07:34:16.622Z,54.70
2016-12-25T07:35:12.111Z,54.80
2016-12-25T07:36:12.820Z,54.80
2016-12-25T07:37:12.910Z,54.90
2016-12-25T07:38:12.770Z,54.90
2016-12-25T07:39:12.282Z,54.70
2016-12-25T07:40:13.750Z,54.90
2016-12-25T07:41:15.676Z,54.80
2016-12-25T07:42:13.447Z,54.80
2016-12-25T07:43:12.652Z,55.00
2016-12-25T07:44:12.590Z,54.80
2016-12-25T07:45:12.545Z,54.90
2016-12-25T07:46:12.601Z,55.00
2016-12-25T07:47:12.093Z,54.70
2016-12-25T07:48:13.699Z,54.80
2016-12-25T07:49:12.293Z,54.80
2016-12-25T07:50:13.064Z,54.90
2016-12-25T07:51:14.141Z,54.00
2016-12-25T07:52:14.155Z,54.90
2016-12-25T07:53:12.025Z,is
2016-12-25T07:54:12.613Z,54.80
2016-12-25T07:55:12.960Z,54.80
2016-12-25T07:56:13.166Z,54.90
2016-12-25T07:57:13.241Z,54.70
2016-12-25T07:58:13.431Z,54.90
2016-12-25T07:59:11.788Z,54.70
2016-12-25T08:00:12.249Z,54.80
2016-12-25T08:01:12.567Z,54.80
2016-12-25T08:02:13.347Z,54.80
2016-12-25T08:03:13.095Z,54.90
2016-12-25T08:04:12.530Z,54.80
2016-12-25T08:05:12.330Z,54.90
2016-12-25T08:06:13.570Z,54.90
2016-12-25T08:07:17.873Z,54.80
2016-12-25T08:08:12.325Z,54.90
2016-12-25T08:09:21.803Z,54.80
2016-12-25T08:10:12.978Z,54.80
2016-12-25T08:11:13.289Z,54.90
2016-12-25T08:12:12.505Z,54.90
2016-12-25T08:13:12.690Z,54.90
2016-12-25T08:14:13.392Z,54.90
2016-12-25T08:15:13.631Z,54.90
2016-12-25T08:16:19.291Z,54.80
2016-12-25T08:17:22.344Z,54.90
2016-12-25T08:18:12.588Z,54.80
2016-12-25T08:19:12.492Z,54.90
2016-12-25T08:20:12.342Z,54.90
2016-12-25T08:21:12.867Z,54.80
2016-12-25T08:22:12.369Z,54.70
2016-12-25T08:23:27.702Z,55.00
2016-12-25T08:24:12.679Z,54.80
2016-12-25T08:25:15.474Z,55.00
2016-12-25T08:26:12.372Z,54.80
2016-12-25T08:27:12.020Z,54.80
2016-12-25T08:28:12.456Z,54.80
2016-12-25T08:29:11.987Z,54.80
2016-12-25T08:30:13.833Z,54.80
2016-12-25T08:31:12.784Z,54.90
2016-12-25T08:32:12.259Z,54.80
2016-12-25T08:33:13.417Z,54.90
2016-12-25T08:34:11.797Z,54.70
2016-12-25T08:35:10.862Z,is
2016-12-25T08:36:12.859Z,54.90
2016-12-25T08:37:12.754Z,54.90
2016-12-25T08:38:12.241Z,54.70
2016-12-25T08:39:13.115Z,54.90
2016-12-25T08:40:12.439Z,54.80
2016-12-25T08:41:11.986Z,54.90
2016-12-25T08:42:13.288Z,54.90
2016-12-25T08:43:13.376Z,54.90
2016-12-25T08:44:12.611Z,54.80
2016-12-25T08:45:13.562Z,53.90
2016-12-25T08:46:12.235Z,55.00
2016-12-25T08:47:12.656Z,54.80
2016-12-25T08:48:12.804Z,54.90
2016-12-25T08:49:12.239Z,54.90
2016-12-25T08:50:12.846Z,54.90
2016-12-25T08:51:12.253Z,54.90
2016-12-25T08:52:13.106Z,54.90
2016-12-25T08:53:13.245Z,54.80
2016-12-25T08:54:13.210Z,54.90
2016-12-25T08:55:12.455Z,54.80
2016-12-25T08:56:13.216Z,54.90
2016-12-25T08:57:12.562Z,54.80
2016-12-25T08:58:12.577Z,54.90
2016-12-25T08:59:12.624Z,54.80
2016-12-25T09:00:12.715Z,54.90
2016-12-25T09:01:12.403Z,54.90
2016-12-25T09:02:14.127Z,55.10
2016-12-25T09:03:13.013Z,55.00
2016-12-25T09:04:12.827Z,55.00
2016-12-25T09:05:12.557Z,55.00
2016-12-25T09:06:12.399Z,55.00
2016-12-25T09:07:14.213Z,55.10
2016-12-25T09:08:10.100Z,is
2016-12-25T09:09:18.491Z,55.00
2016-12-25T09:10:12.412Z,55.00
2016-12-25T09:11:10.840Z,is
2016-12-25T09:12:12.479Z,54.90
2016-12-25T09:13:12.439Z,54.90
2016-12-25T09:14:12.463Z,54.90
2016-12-25T09:15:10.423Z,is
2016-12-25T09:16:10.539Z,is
2016-12-25T09:17:12.261Z,54.90
2016-12-25T09:18:13.065Z,54.90
2016-12-25T09:19:13.014Z,55.00
2016-12-25T09:20:13.222Z,54.90
2016-12-25T09:21:11.526Z,is
2016-12-25T09:22:13.284Z,54.90
2016-12-25T09:23:15.520Z,55.00
2016-12-25T09:24:12.263Z,54.80
2016-12-25T09:25:12.448Z,54.80
2016-12-25T09:26:11.856Z,55.00
2016-12-25T09:27:12.145Z,54.80
2016-12-25T09:28:15.019Z,54.00
2016-12-25T09:29:12.519Z,54.90
2016-12-25T09:30:14.248Z,54.90
2016-12-25T09:31:15.736Z,54.00
2016-12-25T09:32:12.292Z,53.30
2016-12-25T09:33:12.981Z,52.90
2016-12-25T09:34:12.614Z,49.20
2016-12-25T09:35:13.365Z,46.40
2016-12-25T09:36:15.065Z,44.20
2016-12-25T09:37:12.438Z,42.20
2016-12-25T09:38:14.889Z,42.10
2016-12-25T09:39:30.534Z,41.20
2016-12-25T09:40:14.060Z,43.80
2016-12-25T09:41:15.146Z,44.80
2016-12-25T09:42:22.374Z,45.90
2016-12-25T09:43:12.444Z,47.90
2016-12-25T09:44:12.026Z,48.00
2016-12-25T09:45:20.901Z,48.90
2016-12-25T09:46:13.106Z,48.60
2016-12-25T09:47:12.998Z,48.50
2016-12-25T09:48:14.834Z,48.90
2016-12-25T09:49:12.423Z,49.00
2016-12-25T09:50:12.606Z,49.10
2016-12-25T09:51:12.543Z,49.20
2016-12-25T09:52:12.597Z,49.30
2016-12-25T09:53:12.394Z,49.40
2016-12-25T09:54:13.999Z,49.40
2016-12-25T09:55:13.959Z,49.40
2016-12-25T09:56:12.313Z,49.40
2016-12-25T09:57:14.218Z,49.40
2016-12-25T09:58:12.683Z,49.50
2016-12-25T09:59:13.471Z,49.50
2016-12-25T10:00:13.974Z,49.60
2016-12-25T10:01:13.073Z,49.70
2016-12-25T10:02:12.855Z,49.70
2016-12-25T10:03:12.971Z,49.70
2016-12-25T10:04:12.347Z,49.70
2016-12-25T10:05:13.142Z,50.00
2016-12-25T10:06:11.792Z,is
2016-12-25T10:07:12.037Z,49.80
2016-12-25T10:08:12.376Z,50.00
2016-12-25T10:09:12.681Z,50.00
2016-12-25T10:10:12.617Z,50.10
2016-12-25T10:11:18.045Z,50.10
2016-12-25T10:12:12.959Z,50.20
2016-12-25T10:13:12.615Z,50.20
2016-12-25T10:14:11.687Z,is
2016-12-25T10:15:13.214Z,50.30
2016-12-25T10:16:13.072Z,50.40
2016-12-25T10:17:11.696Z,is
2016-12-25T10:18:10.616Z,is
2016-12-25T10:19:12.713Z,50.50
2016-12-25T10:20:14.546Z,50.50
2016-12-25T10:21:12.055Z,50.50
2016-12-25T10:22:12.484Z,50.50
2016-12-25T10:23:10.936Z,is
2016-12-25T10:24:12.362Z,50.70
2016-12-25T10:25:14.144Z,50.60
2016-12-25T10:26:13.263Z,50.70
2016-12-25T10:27:13.997Z,50.80
2016-12-25T10:28:13.520Z,50.90
2016-12-25T10:29:12.096Z,50.70
2016-12-25T10:30:12.475Z,50.80
2016-12-25T10:31:10.674Z,is
2016-12-25T10:32:11.614Z,is
2016-12-25T10:33:12.024Z,50.90
2016-12-25T10:34:13.180Z,50.90
2016-12-25T10:35:12.755Z,50.90
2016-12-25T10:36:12.272Z,51.00
2016-12-25T10:37:11.337Z,is
2016-12-25T10:38:13.166Z,51.10
2016-12-25T10:39:13.016Z,51.00
2016-12-25T10:40:12.846Z,51.10
2016-12-25T10:41:14.048Z,51.10
2016-12-25T10:42:12.478Z,51.10
2016-12-25T10:43:14.163Z,50.20
2016-12-25T10:44:13.341Z,51.10
2016-12-25T10:45:14.660Z,51.10
2016-12-25T10:46:12.173Z,51.10
2016-12-25T10:47:13.088Z,51.20
2016-12-25T10:48:12.914Z,51.30
2016-12-25T10:49:13.045Z,51.20
2016-12-25T10:50:12.895Z,51.20
2016-12-25T10:51:12.813Z,51.30
2016-12-25T10:52:12.409Z,51.20
2016-12-25T10:53:13.193Z,51.70
2016-12-25T10:54:13.960Z,51.40
2016-12-25T10:55:12.373Z,51.20
2016-12-25T10:56:15.157Z,51.30
2016-12-25T10:57:13.335Z,51.30
2016-12-25T10:58:12.688Z,51.40
2016-12-25T10:59:13.950Z,51.40
2016-12-25T11:00:14.888Z,51.40
2016-12-25T11:01:12.479Z,51.40
2016-12-25T11:02:14.664Z,51.40
2016-12-25T11:03:12.493Z,51.50
2016-12-25T11:04:12.509Z,51.50
2016-12-25T11:05:13.116Z,51.50
2016-12-25T11:06:13.473Z,51.50
2016-12-25T11:07:13.576Z,51.60
2016-12-25T11:08:12.637Z,51.50
2016-12-25T11:09:14.861Z,51.50
2016-12-25T11:10:10.621Z,is
2016-12-25T11:11:12.408Z,51.60
2016-12-25T11:12:10.719Z,is
2016-12-25T11:13:14.892Z,51.70
2016-12-25T11:14:15.718Z,50.70
2016-12-25T11:15:12.605Z,51.50
2016-12-25T11:16:22.128Z,51.70
2016-12-25T11:17:22.074Z,is
2016-12-25T11:18:17.706Z,51.70
2016-12-25T11:19:11.930Z,is
2016-12-25T11:20:19.109Z,51.80
2016-12-25T11:21:13.028Z,51.70
2016-12-25T11:22:13.038Z,51.70
2016-12-25T11:23:13.036Z,51.70
2016-12-25T11:24:11.624Z,is
2016-12-25T11:25:11.948Z,51.70
2016-12-25T11:26:12.800Z,51.90
2016-12-25T11:27:12.517Z,51.80
2016-12-25T11:28:11.842Z,51.70
2016-12-25T11:29:12.334Z,51.70
2016-12-25T11:30:12.459Z,51.70
2016-12-25T11:31:12.360Z,51.70
2016-12-25T11:32:13.040Z,51.80
2016-12-25T11:33:12.818Z,51.80
2016-12-25T11:34:14.070Z,51.00
2016-12-25T11:35:13.954Z,51.70
2016-12-25T11:36:12.464Z,51.70
2016-12-25T11:37:13.110Z,51.70
2016-12-25T11:38:13.274Z,51.80
2016-12-25T11:39:14.149Z,51.80
2016-12-25T11:40:11.793Z,51.70
2016-12-25T11:41:12.161Z,51.80
2016-12-25T11:42:13.184Z,51.90
2016-12-25T11:43:10.052Z,is
2016-12-25T11:44:12.422Z,51.80
2016-12-25T11:45:14.002Z,51.80
2016-12-25T11:46:13.040Z,51.90
2016-12-25T11:47:13.667Z,51.80
2016-12-25T11:48:12.316Z,52.00
2016-12-25T11:49:13.215Z,51.90
2016-12-25T11:50:14.091Z,51.90
2016-12-25T11:51:13.924Z,51.00
2016-12-25T11:52:12.227Z,51.80
2016-12-25T11:53:11.443Z,is
2016-12-25T11:54:12.657Z,51.90
2016-12-25T11:55:12.541Z,52.00
2016-12-25T11:56:11.877Z,51.80
2016-12-25T11:57:15.553Z,51.50
2016-12-25T11:58:11.988Z,51.80
2016-12-25T11:59:12.859Z,51.70
2016-12-25T12:00:12.058Z,51.90
2016-12-25T12:01:12.547Z,51.90
2016-12-25T12:02:13.195Z,51.90
2016-12-25T12:03:12.561Z,51.90
2016-12-25T12:04:12.002Z,51.90
2016-12-25T12:05:12.897Z,52.00
2016-12-25T12:06:14.601Z,51.90
2016-12-25T12:07:12.144Z,51.80
2016-12-25T12:08:13.654Z,52.00
2016-12-25T12:09:12.063Z,51.80
2016-12-25T12:10:12.560Z,51.90
2016-12-25T12:11:10.816Z,is
2016-12-25T12:12:12.958Z,52.00
2016-12-25T12:13:12.428Z,52.10
2016-12-25T12:14:12.311Z,52.00
2016-12-25T12:15:11.601Z,is
2016-12-25T12:16:12.279Z,52.00
2016-12-25T12:17:13.118Z,52.10
2016-12-25T12:18:12.889Z,52.50
2016-12-25T12:19:12.642Z,52.10
2016-12-25T12:20:15.306Z,52.10
2016-12-25T12:21:12.837Z,52.00
2016-12-25T12:22:13.670Z,52.10
2016-12-25T12:23:13.419Z,52.00
2016-12-25T12:24:11.971Z,52.20
2016-12-25T12:25:13.712Z,52.00
2016-12-25T12:26:12.744Z,52.00
2016-12-25T12:27:12.268Z,52.00
2016-12-25T12:28:12.706Z,52.10
2016-12-25T12:29:12.355Z,52.20
2016-12-25T12:30:13.362Z,52.10
2016-12-25T12:31:14.016Z,52.10
2016-12-25T12:32:13.023Z,52.20
2016-12-25T12:33:12.517Z,52.10
2016-12-25T12:34:12.248Z,52.10
2016-12-25T12:35:12.622Z,52.10
2016-12-25T12:36:12.595Z,52.20
2016-12-25T12:37:12.482Z,52.30
2016-12-25T12:38:10.025Z,is
2016-12-25T12:39:12.606Z,52.10
2016-12-25T12:40:20.213Z,52.10
2016-12-25T12:41:14.642Z,52.20
2016-12-25T12:42:14.064Z,52.40
2016-12-25T12:43:13.463Z,52.30
2016-12-25T12:44:12.636Z,52.20
2016-12-25T12:45:15.089Z,51.40
2016-12-25T12:46:12.774Z,52.10
2016-12-25T12:47:13.614Z,52.20
2016-12-25T12:48:12.084Z,52.20
2016-12-25T12:49:11.251Z,is
2016-12-25T12:50:12.457Z,52.40
2016-12-25T12:51:12.942Z,51.60
2016-12-25T12:52:12.292Z,52.30
2016-12-25T12:53:15.257Z,52.20
2016-12-25T12:54:12.651Z,52.20
2016-12-25T12:55:12.393Z,52.60
2016-12-25T12:56:11.972Z,52.20
2016-12-25T12:57:12.567Z,52.30
2016-12-25T12:58:11.310Z,is